createdAt,value
2018-12-04T00:01:51.359Z,61.71
2018-12-04T00:04:55.956Z,62.02
2018-12-04T00:08:00.522Z,61.79
2018-12-04T00:11:05.134Z,61.53
2018-12-04T00:14:09.662Z,61.03
2018-12-04T00:17:14.206Z,60.81
2018-12-04T00:20:18.759Z,60.65
2018-12-04T00:23:23.523Z,60.93
2018-12-04T00:26:28.131Z,60.84
2018-12-04T00:29:32.774Z,60.73
2018-12-04T00:32:37.370Z,60.50
2018-12-04T00:35:41.913Z,60.76
2018-12-04T00:38:46.438Z,61.42
2018-12-04T00:41:51.030Z,61.06
2018-12-04T00:44:55.618Z,60.73
2018-12-04T00:48:00.155Z,60.70
2018-12-04T00:51:04.757Z,60.76
2018-12-04T00:54:09.413Z,60.50
2018-12-04T00:57:13.946Z,60.55
2018-12-04T01:00:18.589Z,60.55
2018-12-04T01:03:23.118Z,60.24
2018-12-04T01:06:27.717Z,60.53
2018-12-04T01:09:32.239Z,60.50
2018-12-04T01:12:36.767Z,61.17
2018-12-04T01:15:41.299Z,60.42
2018-12-04T01:18:45.886Z,60.08
2018-12-04T01:21:50.452Z,61.69
2018-12-04T01:24:55.090Z,60.82
2018-12-04T01:27:59.662Z,61.18
2018-12-04T01:31:04.209Z,60.97
2018-12-04T01:34:08.909Z,61.28
2018-12-04T01:37:13.536Z,61.56
2018-12-04T01:40:18.087Z,61.76
2018-12-04T01:43:22.745Z,61.76
2018-12-04T01:46:27.330Z,61.62
2018-12-04T01:49:31.865Z,61.63
2018-12-04T01:52:36.453Z,61.56
2018-12-04T01:55:41.007Z,62.48
2018-12-04T01:58:45.517Z,61.98
2018-12-04T02:01:50.110Z,61.77
2018-12-04T02:04:54.618Z,61.59
2018-12-04T02:07:59.238Z,61.76
2018-12-04T02:11:03.797Z,61.78
2018-12-04T02:14:08.362Z,61.59
2018-12-04T02:17:12.930Z,61.83
2018-12-04T02:20:17.514Z,61.71
2018-12-04T02:23:22.218Z,62.13
2018-12-04T02:26:26.815Z,61.22
2018-12-04T02:29:31.349Z,61.58
2018-12-04T02:32:35.933Z,61.42
2018-12-04T02:35:40.476Z,62.26
2018-12-04T02:38:45.006Z,62.39
2018-12-04T02:41:49.642Z,62.33
2018-12-04T02:44:54.458Z,62.34
2018-12-04T02:47:58.998Z,62.88
2018-12-04T02:51:03.647Z,62.25
2018-12-04T02:54:08.390Z,62.01
2018-12-04T02:57:12.926Z,62.29
2018-12-04T03:00:17.558Z,62.38
2018-12-04T03:03:22.126Z,62.25
2018-12-04T03:06:26.680Z,63.58
2018-12-04T03:09:31.237Z,63.06
2018-12-04T03:12:35.760Z,62.77
2018-12-04T03:15:40.477Z,63.87
2018-12-04T03:18:44.990Z,62.04
2018-12-04T03:21:49.538Z,61.83
2018-12-04T03:24:54.160Z,62.30
2018-12-04T03:27:58.742Z,61.83
2018-12-04T03:31:03.327Z,61.76
2018-12-04T03:34:07.935Z,61.46
2018-12-04T03:37:12.470Z,61.48
2018-12-04T03:40:16.998Z,60.96
2018-12-04T03:43:21.672Z,60.92
2018-12-04T03:46:26.257Z,61.28
2018-12-04T03:49:30.906Z,60.73
2018-12-04T03:52:35.466Z,61.54
2018-12-04T03:55:40.022Z,61.41
2018-12-04T03:58:44.562Z,62.52
2018-12-04T04:01:49.108Z,61.86
2018-12-04T04:04:53.651Z,61.31
2018-12-04T04:07:58.177Z,60.90
2018-12-04T04:11:02.778Z,60.81
2018-12-04T04:14:07.299Z,60.82
2018-12-04T04:17:11.874Z,61.11
2018-12-04T04:20:16.514Z,60.43
2018-12-04T04:23:21.190Z,60.61
2018-12-04T04:26:25.929Z,60.43
2018-12-04T04:30:05.449Z,60.46
2018-12-04T04:33:09.974Z,60.49
2018-12-04T04:36:16.601Z,60.65
2018-12-04T04:39:21.133Z,61.27
2018-12-04T04:42:25.749Z,61.71
2018-12-04T04:45:30.250Z,61.86
2018-12-04T04:48:34.736Z,62.22
2018-12-04T04:51:39.291Z,61.54
2018-12-04T04:54:45.890Z,61.30
2018-12-04T04:57:50.437Z,61.24
2018-12-04T05:00:54.953Z,61.57
2018-12-04T05:03:59.511Z,61.05
2018-12-04T05:07:04.146Z,60.93
2018-12-04T05:10:08.739Z,60.89
2018-12-04T05:13:13.257Z,60.61
2018-12-04T05:16:18.057Z,60.46
2018-12-04T05:19:22.644Z,60.56
2018-12-04T05:22:27.240Z,60.71
2018-12-04T05:25:31.859Z,61.14
2018-12-04T05:28:36.366Z,61.09
2018-12-04T05:31:40.878Z,60.90
2018-12-04T05:34:45.403Z,62.96
2018-12-04T05:37:50.049Z,63.59
2018-12-04T05:40:54.651Z,63.34
2018-12-04T05:43:59.157Z,64.46
2018-12-04T05:47:03.706Z,64.34
2018-12-04T05:50:08.893Z,63.54
2018-12-04T05:53:24.487Z,63.41
2018-12-04T05:56:29.090Z,62.55
2018-12-04T05:59:33.685Z,64.30
2018-12-04T06:02:38.216Z,62.64
2018-12-04T06:05:42.805Z,62.71
2018-12-04T06:08:47.328Z,61.97
2018-12-04T06:11:52.050Z,60.88
2018-12-04T06:14:56.573Z,60.18
2018-12-04T06:18:01.182Z,60.09
2018-12-04T06:21:05.854Z,59.72
2018-12-04T06:24:10.379Z,60.17
2018-12-04T06:27:14.915Z,59.76
2018-12-04T06:30:19.516Z,60.23
2018-12-04T06:33:24.073Z,60.61
2018-12-04T06:36:28.618Z,62.60
2018-12-04T06:39:33.150Z,60.37
2018-12-04T06:42:37.685Z,59.31
2018-12-04T06:45:42.236Z,60.14
2018-12-04T06:48:46.777Z,60.33
2018-12-04T06:51:51.352Z,59.87
2018-12-04T06:54:55.853Z,60.20
2018-12-04T06:58:00.439Z,59.51
2018-12-04T07:01:05.828Z,59.02
2018-12-04T07:04:10.318Z,58.95
2018-12-04T07:07:14.834Z,58.26
2018-12-04T07:10:19.454Z,58.59
2018-12-04T07:13:24.007Z,59.39
2018-12-04T07:16:28.566Z,58.04
2018-12-04T07:19:33.101Z,56.41
2018-12-04T07:22:37.715Z,57.13
2018-12-04T07:25:42.232Z,55.59
2018-12-04T07:28:46.817Z,54.17
2018-12-04T07:31:51.371Z,54.38
2018-12-04T07:34:55.941Z,53.88
2018-12-04T07:38:00.483Z,54.17
2018-12-04T07:41:05.012Z,54.14
2018-12-04T07:44:09.611Z,53.17
2018-12-04T07:47:14.187Z,53.15
2018-12-04T07:50:18.753Z,53.09
2018-12-04T07:53:23.358Z,52.54
2018-12-04T07:56:27.867Z,51.97
2018-12-04T07:59:32.387Z,51.71
2018-12-04T08:02:36.986Z,51.31
2018-12-04T08:05:41.629Z,52.63
2018-12-04T08:08:46.178Z,53.34
2018-12-04T08:11:50.829Z,53.62
2018-12-04T08:14:55.414Z,54.77
2018-12-04T08:17:59.953Z,54.95
2018-12-04T08:21:04.534Z,54.82
2018-12-04T08:24:09.048Z,54.31
2018-12-04T08:27:18.093Z,54.32
2018-12-04T08:30:22.714Z,54.20
2018-12-04T08:33:27.385Z,54.87
2018-12-04T08:36:31.896Z,54.43
2018-12-04T08:39:36.410Z,54.15
2018-12-04T08:42:40.926Z,54.39
2018-12-04T08:45:45.520Z,54.02
2018-12-04T08:48:50.159Z,54.46
2018-12-04T08:51:54.718Z,53.62
2018-12-04T08:54:59.355Z,53.98
2018-12-04T08:58:03.922Z,53.70
2018-12-04T09:01:08.517Z,53.31
2018-12-04T09:04:13.042Z,52.83
2018-12-04T09:07:17.664Z,52.42
2018-12-04T09:10:22.206Z,51.36
2018-12-04T09:13:26.870Z,51.03
2018-12-04T09:16:31.525Z,51.27
2018-12-04T09:19:36.305Z,50.04
2018-12-04T09:22:41.030Z,49.35
2018-12-04T09:25:45.816Z,49.56
2018-12-04T09:28:50.546Z,49.75
2018-12-04T09:31:55.323Z,49.10
2018-12-04T09:34:59.990Z,49.19
2018-12-04T09:38:04.568Z,49.34
2018-12-04T09:41:09.164Z,48.08
2018-12-04T09:44:13.817Z,47.54
2018-12-04T09:47:18.389Z,47.94
2018-12-04T09:50:23.061Z,47.12
2018-12-04T09:53:27.641Z,46.89
2018-12-04T09:56:32.150Z,47.72
2018-12-04T09:59:39.439Z,47.03
2018-12-04T10:02:43.367Z,46.80
2018-12-04T10:05:47.966Z,46.81
2018-12-04T10:08:52.475Z,45.63
2018-12-04T10:11:57.034Z,45.24
2018-12-04T10:15:01.542Z,45.46
2018-12-04T10:18:06.407Z,44.85
2018-12-04T10:21:11.010Z,43.29
2018-12-04T10:24:15.611Z,42.54
2018-12-04T10:27:20.196Z,44.28
2018-12-04T10:30:24.778Z,43.79
2018-12-04T10:33:29.310Z,43.85
2018-12-04T10:36:33.910Z,43.38
2018-12-04T10:39:38.444Z,43.51
2018-12-04T10:42:42.957Z,42.25
2018-12-04T10:45:47.499Z,43.20
2018-12-04T10:48:52.024Z,41.81
2018-12-04T10:51:56.642Z,42.13
2018-12-04T10:55:01.215Z,43.30
2018-12-04T10:58:06.187Z,44.47
2018-12-04T11:01:15.768Z,44.19
2018-12-04T11:04:20.352Z,44.78
2018-12-04T11:07:24.983Z,45.16
2018-12-04T11:10:29.510Z,45.80
2018-12-04T11:13:34.169Z,44.23
2018-12-04T11:16:41.702Z,43.03
2018-12-04T11:19:46.255Z,41.94
2018-12-04T11:22:50.938Z,42.28
2018-12-04T11:25:55.516Z,42.81
2018-12-04T11:29:00.145Z,41.84
2018-12-04T11:32:04.698Z,41.37
2018-12-04T11:35:09.363Z,41.98
2018-12-04T11:38:13.958Z,40.14
2018-12-04T11:41:18.484Z,40.32
2018-12-04T11:44:24.120Z,40.49
2018-12-04T11:47:29.259Z,41.01
2018-12-04T11:50:33.807Z,39.73
2018-12-04T11:53:38.409Z,39.77
2018-12-04T11:56:42.914Z,39.76
2018-12-04T11:59:47.431Z,39.48
2018-12-04T12:02:52.103Z,40.61
2018-12-04T12:05:56.710Z,41.09
2018-12-04T12:09:04.145Z,41.71
2018-12-04T12:12:10.694Z,41.85
2018-12-04T12:15:17.974Z,43.10
2018-12-04T12:18:21.789Z,43.00
2018-12-04T12:21:26.374Z,43.09
2018-12-04T12:24:30.940Z,42.65
2018-12-04T12:27:36.046Z,43.17
2018-12-04T12:30:40.624Z,45.05
2018-12-04T12:33:45.189Z,45.16
2018-12-04T12:36:49.708Z,45.11
2018-12-04T12:39:54.326Z,45.75
2018-12-04T12:42:58.946Z,45.97
2018-12-04T12:46:03.632Z,46.63
2018-12-04T12:49:08.146Z,46.94
2018-12-04T12:52:14.836Z,46.63
2018-12-04T12:55:19.337Z,47.36
2018-12-04T12:58:23.846Z,47.41
2018-12-04T13:01:28.411Z,48.36
2018-12-04T13:04:32.984Z,47.44
2018-12-04T13:07:37.489Z,47.01
2018-12-04T13:10:42.051Z,48.63
2018-12-04T13:13:46.607Z,47.63
2018-12-04T13:16:51.169Z,48.18
2018-12-04T13:19:55.698Z,48.07
2018-12-04T13:23:00.209Z,48.63
2018-12-04T13:26:04.861Z,48.25
2018-12-04T13:29:09.461Z,48.54
2018-12-04T13:32:13.992Z,48.18
2018-12-04T13:35:18.546Z,48.72
2018-12-04T13:38:23.925Z,49.26
2018-12-04T13:41:28.451Z,50.46
2018-12-04T13:44:33.125Z,50.56
2018-12-04T13:47:45.430Z,50.88
2018-12-04T13:50:50.128Z,50.64
2018-12-04T13:53:54.673Z,50.38
2018-12-04T13:56:59.214Z,51.19
2018-12-04T14:00:04.258Z,50.94
2018-12-04T14:03:08.999Z,50.74
2018-12-04T14:06:13.567Z,50.87
2018-12-04T14:09:18.269Z,51.12
2018-12-04T14:12:22.814Z,51.03
2018-12-04T14:15:27.500Z,51.36
2018-12-04T14:18:33.039Z,51.48
2018-12-04T14:21:37.718Z,51.90
2018-12-04T14:24:42.391Z,51.15
2018-12-04T14:27:49.350Z,51.53
2018-12-04T14:30:54.134Z,51.83
2018-12-04T14:33:58.774Z,52.28
2018-12-04T14:37:03.555Z,52.50
2018-12-04T14:40:09.096Z,52.62
2018-12-04T14:43:14.798Z,52.96
2018-12-04T14:46:19.368Z,53.01
2018-12-04T14:49:24.827Z,53.52
2018-12-04T14:52:29.472Z,53.75
2018-12-04T14:55:34.158Z,53.19
2018-12-04T14:58:38.799Z,54.10
2018-12-04T15:01:43.367Z,53.76
2018-12-04T15:04:48.121Z,53.40
2018-12-04T15:07:52.997Z,53.91
2018-12-04T15:10:57.725Z,53.96
2018-12-04T15:14:02.308Z,53.85
2018-12-04T15:17:06.856Z,54.47
2018-12-04T15:20:11.544Z,55.07
2018-12-04T15:23:16.194Z,54.91
2018-12-04T15:26:20.751Z,54.66
2018-12-04T15:29:25.349Z,55.48
2018-12-04T15:32:29.967Z,55.70
2018-12-04T15:35:34.464Z,55.30
2018-12-04T15:38:39.064Z,56.17
2018-12-04T15:41:46.290Z,56.79
2018-12-04T15:44:50.168Z,57.28
2018-12-04T15:47:54.722Z,57.89
2018-12-04T15:51:00.098Z,57.80
2018-12-04T15:54:05.155Z,58.47
2018-12-04T15:57:09.709Z,58.11
2018-12-04T16:00:14.459Z,58.57
2018-12-04T16:03:20.066Z,58.77
2018-12-04T16:06:24.659Z,58.82
2018-12-04T16:09:30.041Z,58.94
2018-12-04T16:12:34.682Z,58.50
2018-12-04T16:15:39.286Z,59.30
2018-12-04T16:18:44.015Z,58.69
2018-12-04T16:21:48.513Z,60.11
2018-12-04T16:24:53.137Z,59.96
2018-12-04T16:27:57.662Z,60.63
2018-12-04T16:31:02.244Z,60.57
2018-12-04T16:34:06.791Z,60.39
2018-12-04T16:37:11.333Z,60.18
2018-12-04T16:40:15.849Z,61.59
2018-12-04T16:43:20.745Z,60.59
2018-12-04T16:46:25.295Z,61.02
2018-12-04T16:49:29.870Z,60.59
2018-12-04T16:52:34.745Z,60.39
2018-12-04T16:55:39.272Z,60.29
2018-12-04T16:58:43.847Z,59.71
2018-12-04T17:01:48.401Z,60.20
2018-12-04T17:04:52.969Z,60.24
2018-12-04T17:07:57.565Z,59.95
2018-12-04T17:11:02.099Z,60.69
2018-12-04T17:14:06.677Z,60.85
2018-12-04T17:17:11.226Z,60.70
2018-12-04T17:20:15.844Z,60.68
2018-12-04T17:23:20.426Z,60.82
2018-12-04T17:26:25.071Z,61.07
2018-12-04T17:29:30.612Z,62.12
2018-12-04T17:32:35.202Z,60.99
2018-12-04T17:35:40.174Z,60.57
2018-12-04T17:38:44.794Z,60.50
2018-12-04T17:41:49.378Z,60.69
2018-12-04T17:44:53.909Z,60.58
2018-12-04T17:47:58.546Z,61.35
2018-12-04T17:51:03.225Z,61.36
2018-12-04T17:54:07.771Z,60.93
2018-12-04T17:57:12.455Z,61.17
2018-12-04T18:00:19.061Z,61.15
2018-12-04T18:03:23.582Z,61.51
2018-12-04T18:06:28.265Z,62.33
2018-12-04T18:09:32.870Z,61.56
2018-12-04T18:12:39.441Z,60.93
2018-12-04T18:15:46.020Z,61.14
2018-12-04T18:18:50.641Z,61.20
2018-12-04T18:21:55.277Z,61.29
2018-12-04T18:24:59.954Z,61.63
2018-12-04T18:28:04.608Z,60.80
2018-12-04T18:31:09.311Z,60.58
2018-12-04T18:34:13.863Z,61.21
2018-12-04T18:37:18.452Z,61.09
2018-12-04T18:40:25.561Z,61.21
2018-12-04T18:43:31.819Z,61.52
2018-12-04T18:46:36.374Z,62.00
2018-12-04T18:49:40.971Z,61.89
2018-12-04T18:52:45.627Z,61.97
2018-12-04T18:55:50.259Z,63.08
2018-12-04T18:58:54.825Z,62.51
2018-12-04T19:01:59.376Z,62.39
2018-12-04T19:05:04.616Z,62.60
2018-12-04T19:08:09.372Z,61.90
2018-12-04T19:11:15.036Z,61.80
2018-12-04T19:14:19.645Z,61.95
2018-12-04T19:17:24.185Z,62.97
2018-12-04T19:20:29.763Z,62.94
2018-12-04T19:23:34.303Z,62.78
2018-12-04T19:26:38.943Z,62.27
2018-12-04T19:29:43.510Z,62.25
2018-12-04T19:32:54.523Z,61.92
2018-12-04T19:35:59.107Z,63.64
2018-12-04T19:39:05.045Z,62.17
2018-12-04T19:42:14.085Z,61.93
2018-12-04T19:45:21.600Z,61.64
2018-12-04T19:48:27.138Z,61.68
2018-12-04T19:51:31.713Z,61.69
2018-12-04T19:54:36.260Z,61.64
2018-12-04T19:57:40.934Z,61.35
2018-12-04T20:00:45.542Z,61.37
2018-12-04T20:03:50.539Z,61.14
2018-12-04T20:06:55.216Z,63.05
2018-12-04T20:09:59.819Z,62.25
2018-12-04T20:13:04.369Z,62.22
2018-12-04T20:16:09.105Z,62.58
2018-12-04T20:19:13.693Z,62.19
2018-12-04T20:22:18.341Z,61.59
2018-12-04T20:25:22.920Z,62.14
2018-12-04T20:28:27.856Z,62.31
2018-12-04T20:31:32.594Z,62.01
2018-12-04T20:34:37.295Z,62.53
2018-12-04T20:37:43.011Z,62.24
2018-12-04T20:40:47.610Z,62.26
2018-12-04T20:43:52.115Z,62.18
2018-12-04T20:46:57.769Z,62.79
2018-12-04T20:50:02.409Z,62.80
2018-12-04T20:53:06.998Z,62.95
2018-12-04T20:56:11.581Z,62.92
2018-12-04T20:59:16.251Z,62.56
2018-12-04T21:02:20.957Z,62.93
2018-12-04T21:05:25.737Z,62.95
2018-12-04T21:08:30.507Z,62.68
2018-12-04T21:11:35.130Z,62.73
2018-12-04T21:14:39.725Z,62.60
2018-12-04T21:17:44.289Z,62.83
2018-12-04T21:20:48.878Z,62.81
2018-12-04T21:23:53.442Z,62.04
2018-12-04T21:26:58.022Z,62.12
2018-12-04T21:30:07.877Z,62.78
2018-12-04T21:33:17.480Z,62.03
2018-12-04T21:36:27.158Z,62.53
2018-12-04T21:39:36.508Z,62.68
2018-12-04T21:42:46.234Z,62.83
2018-12-04T21:45:56.014Z,62.54
2018-12-04T21:49:00.979Z,62.81
2018-12-04T21:52:05.500Z,62.30
2018-12-04T21:55:10.073Z,61.92
2018-12-04T21:58:14.596Z,61.84
2018-12-04T22:01:19.137Z,61.95
2018-12-04T22:04:23.666Z,62.02
2018-12-04T22:07:28.258Z,62.25
2018-12-04T22:10:32.803Z,62.05
2018-12-04T22:13:37.442Z,62.43
2018-12-04T22:16:41.993Z,62.06
2018-12-04T22:19:46.667Z,61.73
2018-12-04T22:22:51.245Z,61.93
2018-12-04T22:25:55.935Z,62.59
2018-12-04T22:29:00.568Z,62.11
2018-12-04T22:32:05.150Z,62.41
2018-12-04T22:35:09.845Z,63.46
2018-12-04T22:38:14.455Z,62.32
2018-12-04T22:41:19.010Z,62.24
2018-12-04T22:44:23.626Z,62.01
2018-12-04T22:47:28.189Z,61.98
2018-12-04T22:50:32.810Z,61.98
2018-12-04T22:53:37.369Z,62.25
2018-12-04T22:56:41.906Z,62.75
2018-12-04T22:59:46.586Z,62.46
2018-12-04T23:02:51.103Z,62.31
2018-12-04T23:05:55.706Z,62.08
2018-12-04T23:09:00.330Z,62.15
2018-12-04T23:12:05.750Z,61.80
2018-12-04T23:15:10.592Z,61.63
2018-12-04T23:18:15.165Z,61.82
2018-12-04T23:21:19.741Z,61.48
2018-12-04T23:24:24.302Z,61.73
2018-12-04T23:27:28.891Z,62.10
2018-12-04T23:30:33.459Z,62.22
2018-12-04T23:33:37.980Z,62.18
2018-12-04T23:36:42.587Z,61.97
2018-12-04T23:39:47.229Z,62.21
2018-12-04T23:42:51.834Z,62.84
2018-12-04T23:45:57.470Z,62.63
2018-12-04T23:49:02.102Z,62.61
2018-12-04T23:52:06.689Z,63.04
2018-12-04T23:55:11.395Z,62.95
2018-12-04T23:58:16.414Z,63.15
